sensor_id;sensor_type;location;lat;lon;timestamp;P1;durP1;ratioP1;P2;durP2;ratioP2
11084;SDS011;5596;46.826;8.650;2023-01-15T00:01:18;0.70;;;0.70;;
11084;SDS011;5596;46.826;8.650;2023-01-15T00:03:47;1.00;;;0.67;;
11084;SDS011;5596;46.826;8.650;2023-01-15T00:06:15;0.70;;;0.70;;
11084;SDS011;5596;46.826;8.650;2023-01-15T00:08:43;0.67;;;0.67;;
11084;SDS011;5596;46.826;8.650;2023-01-15T00:11:10;0.60;;;0.60;;
11084;SDS011;5596;46.826;8.650;2023-01-15T00:13:37;0.73;;;0.70;;
11084;SDS011;5596;46.826;8.650;2023-01-15T00:16:05;0.70;;;0.70;;
11084;SDS011;5596;46.826;8.650;2023-01-15T00:18:34;0.80;;;0.80;;
11084;SDS011;5596;46.826;8.650;2023-01-15T00:21:02;0.70;;;0.70;;
11084;SDS011;5596;46.826;8.650;2023-01-15T00:23:31;0.80;;;0.80;;
11084;SDS011;5596;46.826;8.650;2023-01-15T00:26:16;1.67;;;0.80;;
11084;SDS011;5596;46.826;8.650;2023-01-15T00:29:02;1.07;;;1.00;;
11084;SDS011;5596;46.826;8.650;2023-01-15T00:31:30;0.70;;;0.70;;
11084;SDS011;5596;46.826;8.650;2023-01-15T00:34:00;0.63;;;0.63;;
11084;SDS011;5596;46.826;8.650;2023-01-15T00:36:27;0.70;;;0.70;;
11084;SDS011;5596;46.826;8.650;2023-01-15T00:38:54;0.70;;;0.70;;
11084;SDS011;5596;46.826;8.650;2023-01-15T00:41:21;1.27;;;0.80;;
11084;SDS011;5596;46.826;8.650;2023-01-15T00:43:48;1.17;;;0.73;;
11084;SDS011;5596;46.826;8.650;2023-01-15T00:46:17;0.70;;;0.70;;
11084;SDS011;5596;46.826;8.650;2023-01-15T00:48:44;0.70;;;0.70;;
11084;SDS011;5596;46.826;8.650;2023-01-15T00:51:12;0.97;;;0.80;;
11084;SDS011;5596;46.826;8.650;2023-01-15T00:53:40;0.70;;;0.67;;
11084;SDS011;5596;46.826;8.650;2023-01-15T00:56:07;0.83;;;0.83;;
11084;SDS011;5596;46.826;8.650;2023-01-15T00:58:34;0.70;;;0.70;;
11084;SDS011;5596;46.826;8.650;2023-01-15T01:01:01;0.70;;;0.70;;
11084;SDS011;5596;46.826;8.650;2023-01-15T01:03:28;0.93;;;0.80;;
11084;SDS011;5596;46.826;8.650;2023-01-15T01:05:58;3.67;;;0.80;;
11084;SDS011;5596;46.826;8.650;2023-01-15T01:08:27;0.90;;;0.80;;
11084;SDS011;5596;46.826;8.650;2023-01-15T01:11:02;0.60;;;0.60;;
11084;SDS011;5596;46.826;8.650;2023-01-15T01:13:32;0.70;;;0.70;;
11084;SDS011;5596;46.826;8.650;2023-01-15T01:15:59;0.80;;;0.80;;
11084;SDS011;5596;46.826;8.650;2023-01-15T01:18:27;0.70;;;0.63;;
11084;SDS011;5596;46.826;8.650;2023-01-15T01:20:54;0.93;;;0.70;;
11084;SDS011;5596;46.826;8.650;2023-01-15T01:23:21;0.97;;;0.80;;
11084;SDS011;5596;46.826;8.650;2023-01-15T01:25:50;0.70;;;0.70;;
11084;SDS011;5596;46.826;8.650;2023-01-15T01:28:17;0.93;;;0.70;;
11084;SDS011;5596;46.826;8.650;2023-01-15T01:30:44;0.70;;;0.70;;
11084;SDS011;5596;46.826;8.650;2023-01-15T01:33:11;1.07;;;0.90;;
11084;SDS011;5596;46.826;8.650;2023-01-15T01:35:38;0.60;;;0.60;;
11084;SDS011;5596;46.826;8.650;2023-01-15T01:38:05;0.70;;;0.70;;
11084;SDS011;5596;46.826;8.650;2023-01-15T01:40:32;1.90;;;0.80;;
11084;SDS011;5596;46.826;8.650;2023-01-15T01:43:01;0.70;;;0.70;;
11084;SDS011;5596;46.826;8.650;2023-01-15T01:45:28;0.80;;;0.80;;
11084;SDS011;5596;46.826;8.650;2023-01-15T01:47:58;0.70;;;0.70;;
11084;SDS011;5596;46.826;8.650;2023-01-15T01:50:30;0.67;;;0.67;;
11084;SDS011;5596;46.826;8.650;2023-01-15T01:53:01;1.20;;;0.90;;
11084;SDS011;5596;46.826;8.650;2023-01-15T01:55:34;1.70;;;0.80;;
11084;SDS011;5596;46.826;8.650;2023-01-15T01:58:04;1.00;;;0.77;;
11084;SDS011;5596;46.826;8.650;2023-01-15T02:00:34;0.90;;;0.70;;
11084;SDS011;5596;46.826;8.650;2023-01-15T02:03:04;0.70;;;0.70;;
11084;SDS011;5596;46.826;8.650;2023-01-15T02:05:34;0.80;;;0.80;;
11084;SDS011;5596;46.826;8.650;2023-01-15T02:08:04;0.70;;;0.70;;
11084;SDS011;5596;46.826;8.650;2023-01-15T02:10:32;0.70;;;0.70;;
11084;SDS011;5596;46.826;8.650;2023-01-15T02:13:03;0.70;;;0.70;;
11084;SDS011;5596;46.826;8.650;2023-01-15T02:15:37;0.70;;;0.70;;
11084;SDS011;5596;46.826;8.650;2023-01-15T02:18:10;0.77;;;0.77;;
11084;SDS011;5596;46.826;8.650;2023-01-15T02:20:44;0.70;;;0.70;;
11084;SDS011;5596;46.826;8.650;2023-01-15T02:23:23;0.90;;;0.80;;
11084;SDS011;5596;46.826;8.650;2023-01-15T02:26:18;0.70;;;0.70;;
11084;SDS011;5596;46.826;8.650;2023-01-15T02:28:56;0.70;;;0.70;;
11084;SDS011;5596;46.826;8.650;2023-01-15T02:31:26;0.70;;;0.70;;
11084;SDS011;5596;46.826;8.650;2023-01-15T02:33:58;0.83;;;0.80;;
11084;SDS011;5596;46.826;8.650;2023-01-15T02:36:29;0.73;;;0.60;;
11084;SDS011;5596;46.826;8.650;2023-01-15T02:39:07;0.93;;;0.80;;
11084;SDS011;5596;46.826;8.650;2023-01-15T02:41:39;0.70;;;0.60;;
11084;SDS011;5596;46.826;8.650;2023-01-15T02:44:12;0.60;;;0.60;;
11084;SDS011;5596;46.826;8.650;2023-01-15T02:46:42;1.00;;;0.80;;
11084;SDS011;5596;46.826;8.650;2023-01-15T02:49:12;2.10;;;0.70;;
11084;SDS011;5596;46.826;8.650;2023-01-15T02:51:43;0.77;;;0.70;;
11084;SDS011;5596;46.826;8.650;2023-01-15T02:54:16;1.00;;;0.90;;
11084;SDS011;5596;46.826;8.650;2023-01-15T02:56:46;0.97;;;0.80;;
11084;SDS011;5596;46.826;8.650;2023-01-15T02:59:19;0.70;;;0.70;;
11084;SDS011;5596;46.826;8.650;2023-01-15T03:01:52;0.90;;;0.80;;
11084;SDS011;5596;46.826;8.650;2023-01-15T03:04:24;1.47;;;0.80;;
11084;SDS011;5596;46.826;8.650;2023-01-15T03:06:58;0.70;;;0.70;;
11084;SDS011;5596;46.826;8.650;2023-01-15T03:09:33;0.80;;;0.80;;
11084;SDS011;5596;46.826;8.650;2023-01-15T03:12:03;0.63;;;0.63;;
11084;SDS011;5596;46.826;8.650;2023-01-15T03:14:41;0.67;;;0.67;;
11084;SDS011;5596;46.826;8.650;2023-01-15T03:17:17;0.77;;;0.77;;
11084;SDS011;5596;46.826;8.650;2023-01-15T03:19:49;0.67;;;0.67;;
11084;SDS011;5596;46.826;8.650;2023-01-15T03:22:22;0.60;;;0.60;;
11084;SDS011;5596;46.826;8.650;2023-01-15T03:24:54;1.60;;;0.80;;
11084;SDS011;5596;46.826;8.650;2023-01-15T03:27:29;0.93;;;0.80;;
11084;SDS011;5596;46.826;8.650;2023-01-15T03:29:59;1.00;;;0.90;;
11084;SDS011;5596;46.826;8.650;2023-01-15T03:32:31;0.70;;;0.70;;
11084;SDS011;5596;46.826;8.650;2023-01-15T03:34:58;0.73;;;0.73;;
11084;SDS011;5596;46.826;8.650;2023-01-15T03:37:28;1.33;;;0.80;;
11084;SDS011;5596;46.826;8.650;2023-01-15T03:39:56;1.77;;;0.80;;
11084;SDS011;5596;46.826;8.650;2023-01-15T03:42:28;0.60;;;0.60;;
11084;SDS011;5596;46.826;8.650;2023-01-15T03:45:13;1.00;;;0.73;;
11084;SDS011;5596;46.826;8.650;2023-01-15T03:47:48;0.70;;;0.70;;
11084;SDS011;5596;46.826;8.650;2023-01-15T03:50:26;0.73;;;0.73;;
11084;SDS011;5596;46.826;8.650;2023-01-15T03:53:03;2.20;;;0.90;;
11084;SDS011;5596;46.826;8.650;2023-01-15T03:55:44;0.70;;;0.70;;
11084;SDS011;5596;46.826;8.650;2023-01-15T03:58:20;0.70;;;0.70;;
11084;SDS011;5596;46.826;8.650;2023-01-15T04:00:55;0.80;;;0.80;;
11084;SDS011;5596;46.826;8.650;2023-01-15T04:03:26;1.00;;;0.90;;
11084;SDS011;5596;46.826;8.650;2023-01-15T04:05:58;0.70;;;0.70;;
11084;SDS011;5596;46.826;8.650;2023-01-15T04:08:28;0.80;;;0.80;;
11084;SDS011;5596;46.826;8.650;2023-01-15T04:10:59;1.57;;;1.17;;
11084;SDS011;5596;46.826;8.650;2023-01-15T04:13:36;0.80;;;0.80;;
11084;SDS011;5596;46.826;8.650;2023-01-15T04:16:07;1.23;;;0.80;;
11084;SDS011;5596;46.826;8.650;2023-01-15T04:18:35;0.90;;;0.70;;
11084;SDS011;5596;46.826;8.650;2023-01-15T04:21:02;0.80;;;0.80;;
11084;SDS011;5596;46.826;8.650;2023-01-15T04:23:31;1.37;;;0.90;;
11084;SDS011;5596;46.826;8.650;2023-01-15T04:25:58;0.80;;;0.80;;
11084;SDS011;5596;46.826;8.650;2023-01-15T04:28:25;0.80;;;0.80;;
11084;SDS011;5596;46.826;8.650;2023-01-15T04:30:52;0.70;;;0.70;;
11084;SDS011;5596;46.826;8.650;2023-01-15T04:33:25;1.93;;;0.83;;
11084;SDS011;5596;46.826;8.650;2023-01-15T04:35:52;6.17;;;0.97;;
11084;SDS011;5596;46.826;8.650;2023-01-15T04:38:19;0.77;;;0.77;;
11084;SDS011;5596;46.826;8.650;2023-01-15T04:40:46;1.10;;;0.90;;
11084;SDS011;5596;46.826;8.650;2023-01-15T04:43:30;0.70;;;0.70;;
11084;SDS011;5596;46.826;8.650;2023-01-15T04:46:19;0.70;;;0.70;;
11084;SDS011;5596;46.826;8.650;2023-01-15T04:48:47;1.13;;;0.90;;
11084;SDS011;5596;46.826;8.650;2023-01-15T04:51:15;0.77;;;0.77;;
11084;SDS011;5596;46.826;8.650;2023-01-15T04:53:43;0.77;;;0.77;;
11084;SDS011;5596;46.826;8.650;2023-01-15T04:56:09;1.33;;;0.80;;
11084;SDS011;5596;46.826;8.650;2023-01-15T04:58:36;0.80;;;0.80;;
11084;SDS011;5596;46.826;8.650;2023-01-15T05:01:08;0.80;;;0.80;;
11084;SDS011;5596;46.826;8.650;2023-01-15T05:03:37;0.80;;;0.80;;
11084;SDS011;5596;46.826;8.650;2023-01-15T05:06:05;0.77;;;0.77;;
11084;SDS011;5596;46.826;8.650;2023-01-15T05:08:33;0.73;;;0.73;;
11084;SDS011;5596;46.826;8.650;2023-01-15T05:11:00;1.10;;;0.70;;
11084;SDS011;5596;46.826;8.650;2023-01-15T05:13:28;0.70;;;0.70;;
11084;SDS011;5596;46.826;8.650;2023-01-15T05:16:05;0.87;;;0.80;;
11084;SDS011;5596;46.826;8.650;2023-01-15T05:18:34;2.03;;;1.10;;
11084;SDS011;5596;46.826;8.650;2023-01-15T05:21:01;0.90;;;0.90;;
11084;SDS011;5596;46.826;8.650;2023-01-15T05:23:29;1.00;;;0.90;;
11084;SDS011;5596;46.826;8.650;2023-01-15T05:25:56;0.70;;;0.70;;
11084;SDS011;5596;46.826;8.650;2023-01-15T05:28:23;0.90;;;0.80;;
11084;SDS011;5596;46.826;8.650;2023-01-15T05:30:50;0.97;;;0.80;;
11084;SDS011;5596;46.826;8.650;2023-01-15T05:33:17;0.77;;;0.77;;
11084;SDS011;5596;46.826;8.650;2023-01-15T05:35:44;1.03;;;0.80;;
11084;SDS011;5596;46.826;8.650;2023-01-15T05:38:11;0.70;;;0.70;;
11084;SDS011;5596;46.826;8.650;2023-01-15T05:40:39;1.33;;;0.90;;
11084;SDS011;5596;46.826;8.650;2023-01-15T05:43:06;0.80;;;0.80;;
11084;SDS011;5596;46.826;8.650;2023-01-15T05:45:33;1.40;;;1.13;;
11084;SDS011;5596;46.826;8.650;2023-01-15T05:48:01;1.23;;;0.90;;
11084;SDS011;5596;46.826;8.650;2023-01-15T05:50:28;0.83;;;0.83;;
11084;SDS011;5596;46.826;8.650;2023-01-15T05:52:55;1.73;;;0.70;;
11084;SDS011;5596;46.826;8.650;2023-01-15T05:55:21;1.07;;;0.80;;
11084;SDS011;5596;46.826;8.650;2023-01-15T05:57:50;1.10;;;0.90;;
11084;SDS011;5596;46.826;8.650;2023-01-15T06:00:17;0.70;;;0.70;;
11084;SDS011;5596;46.826;8.650;2023-01-15T06:02:47;1.07;;;1.00;;
11084;SDS011;5596;46.826;8.650;2023-01-15T06:05:14;1.63;;;0.80;;
11084;SDS011;5596;46.826;8.650;2023-01-15T06:07:46;1.07;;;0.90;;
11084;SDS011;5596;46.826;8.650;2023-01-15T06:10:14;1.13;;;0.90;;
11084;SDS011;5596;46.826;8.650;2023-01-15T06:12:42;1.17;;;0.90;;
11084;SDS011;5596;46.826;8.650;2023-01-15T06:15:11;0.70;;;0.70;;
11084;SDS011;5596;46.826;8.650;2023-01-15T06:17:38;1.27;;;0.90;;
11084;SDS011;5596;46.826;8.650;2023-01-15T06:20:05;0.73;;;0.73;;
11084;SDS011;5596;46.826;8.650;2023-01-15T06:22:33;1.10;;;1.00;;
11084;SDS011;5596;46.826;8.650;2023-01-15T06:25:03;1.30;;;0.90;;
11084;SDS011;5596;46.826;8.650;2023-01-15T06:27:31;1.47;;;0.90;;
11084;SDS011;5596;46.826;8.650;2023-01-15T06:29:58;0.80;;;0.80;;
11084;SDS011;5596;46.826;8.650;2023-01-15T06:32:26;0.80;;;0.80;;
11084;SDS011;5596;46.826;8.650;2023-01-15T06:34:53;0.97;;;0.90;;
11084;SDS011;5596;46.826;8.650;2023-01-15T06:37:20;0.80;;;0.80;;
11084;SDS011;5596;46.826;8.650;2023-01-15T06:39:47;1.93;;;0.87;;
11084;SDS011;5596;46.826;8.650;2023-01-15T06:42:14;0.97;;;0.80;;
11084;SDS011;5596;46.826;8.650;2023-01-15T06:44:59;1.30;;;0.93;;
11084;SDS011;5596;46.826;8.650;2023-01-15T06:47:45;1.27;;;1.00;;
11084;SDS011;5596;46.826;8.650;2023-01-15T06:50:12;0.93;;;0.80;;
11084;SDS011;5596;46.826;8.650;2023-01-15T06:52:40;0.70;;;0.70;;
11084;SDS011;5596;46.826;8.650;2023-01-15T06:55:07;2.10;;;0.80;;
11084;SDS011;5596;46.826;8.650;2023-01-15T06:57:36;0.70;;;0.70;;
11084;SDS011;5596;46.826;8.650;2023-01-15T07:00:04;0.80;;;0.80;;
11084;SDS011;5596;46.826;8.650;2023-01-15T07:02:34;2.13;;;0.80;;
11084;SDS011;5596;46.826;8.650;2023-01-15T07:05:03;0.80;;;0.80;;
11084;SDS011;5596;46.826;8.650;2023-01-15T07:07:30;1.20;;;0.90;;
11084;SDS011;5596;46.826;8.650;2023-01-15T07:09:57;1.13;;;0.80;;
11084;SDS011;5596;46.826;8.650;2023-01-15T07:12:24;2.23;;;0.80;;
11084;SDS011;5596;46.826;8.650;2023-01-15T07:14:51;1.20;;;0.80;;
11084;SDS011;5596;46.826;8.650;2023-01-15T07:17:19;1.30;;;1.00;;
11084;SDS011;5596;46.826;8.650;2023-01-15T07:19:46;1.10;;;0.93;;
11084;SDS011;5596;46.826;8.650;2023-01-15T07:22:14;1.13;;;0.90;;
11084;SDS011;5596;46.826;8.650;2023-01-15T07:24:41;0.80;;;0.80;;
11084;SDS011;5596;46.826;8.650;2023-01-15T07:27:08;0.80;;;0.80;;
11084;SDS011;5596;46.826;8.650;2023-01-15T07:29:35;1.03;;;0.80;;
11084;SDS011;5596;46.826;8.650;2023-01-15T07:32:02;0.80;;;0.80;;
11084;SDS011;5596;46.826;8.650;2023-01-15T07:34:30;1.00;;;0.90;;
11084;SDS011;5596;46.826;8.650;2023-01-15T07:36:57;1.00;;;0.90;;
11084;SDS011;5596;46.826;8.650;2023-01-15T07:39:25;1.23;;;0.97;;
11084;SDS011;5596;46.826;8.650;2023-01-15T07:41:52;1.67;;;1.07;;
11084;SDS011;5596;46.826;8.650;2023-01-15T07:44:37;0.83;;;0.83;;
11084;SDS011;5596;46.826;8.650;2023-01-15T07:47:22;1.33;;;0.90;;
11084;SDS011;5596;46.826;8.650;2023-01-15T07:50:10;0.80;;;0.80;;
11084;SDS011;5596;46.826;8.650;2023-01-15T07:52:39;1.00;;;0.90;;
11084;SDS011;5596;46.826;8.650;2023-01-15T07:55:08;0.90;;;0.90;;
11084;SDS011;5596;46.826;8.650;2023-01-15T07:57:37;1.67;;;0.90;;
11084;SDS011;5596;46.826;8.650;2023-01-15T08:00:06;1.13;;;0.87;;
11084;SDS011;5596;46.826;8.650;2023-01-15T08:02:39;0.70;;;0.70;;
11084;SDS011;5596;46.826;8.650;2023-01-15T08:05:06;0.80;;;0.80;;
11084;SDS011;5596;46.826;8.650;2023-01-15T08:07:36;1.20;;;1.00;;
11084;SDS011;5596;46.826;8.650;2023-01-15T08:10:03;2.03;;;1.03;;
11084;SDS011;5596;46.826;8.650;2023-01-15T08:12:35;2.10;;;0.90;;
11084;SDS011;5596;46.826;8.650;2023-01-15T08:15:19;1.07;;;0.90;;
11084;SDS011;5596;46.826;8.650;2023-01-15T08:17:47;1.07;;;1.00;;
11084;SDS011;5596;46.826;8.650;2023-01-15T08:20:16;1.07;;;0.90;;
11084;SDS011;5596;46.826;8.650;2023-01-15T08:22:45;1.40;;;1.00;;
11084;SDS011;5596;46.826;8.650;2023-01-15T08:25:14;1.33;;;1.10;;
11084;SDS011;5596;46.826;8.650;2023-01-15T08:27:43;1.33;;;0.80;;
11084;SDS011;5596;46.826;8.650;2023-01-15T08:30:12;2.70;;;0.90;;
11084;SDS011;5596;46.826;8.650;2023-01-15T08:32:40;0.83;;;0.80;;
11084;SDS011;5596;46.826;8.650;2023-01-15T08:35:08;1.27;;;1.00;;
11084;SDS011;5596;46.826;8.650;2023-01-15T08:37:35;1.07;;;1.00;;
11084;SDS011;5596;46.826;8.650;2023-01-15T08:40:02;0.87;;;0.83;;
11084;SDS011;5596;46.826;8.650;2023-01-15T08:42:29;1.07;;;0.83;;
11084;SDS011;5596;46.826;8.650;2023-01-15T08:44:58;0.97;;;0.83;;
11084;SDS011;5596;46.826;8.650;2023-01-15T08:47:25;1.20;;;1.03;;
11084;SDS011;5596;46.826;8.650;2023-01-15T08:49:52;0.73;;;0.73;;
11084;SDS011;5596;46.826;8.650;2023-01-15T08:52:19;0.80;;;0.80;;
11084;SDS011;5596;46.826;8.650;2023-01-15T08:54:46;2.23;;;0.83;;
11084;SDS011;5596;46.826;8.650;2023-01-15T08:57:13;1.00;;;0.90;;
11084;SDS011;5596;46.826;8.650;2023-01-15T08:59:40;0.90;;;0.70;;
11084;SDS011;5596;46.826;8.650;2023-01-15T09:02:10;1.03;;;0.80;;
11084;SDS011;5596;46.826;8.650;2023-01-15T09:04:39;0.90;;;0.80;;
11084;SDS011;5596;46.826;8.650;2023-01-15T09:07:06;0.77;;;0.70;;
11084;SDS011;5596;46.826;8.650;2023-01-15T09:09:33;0.83;;;0.83;;
11084;SDS011;5596;46.826;8.650;2023-01-15T09:12:00;1.23;;;0.90;;
11084;SDS011;5596;46.826;8.650;2023-01-15T09:14:28;1.33;;;0.97;;
11084;SDS011;5596;46.826;8.650;2023-01-15T09:16:55;0.80;;;0.80;;
11084;SDS011;5596;46.826;8.650;2023-01-15T09:19:23;1.80;;;0.80;;
11084;SDS011;5596;46.826;8.650;2023-01-15T09:21:50;0.87;;;0.83;;
11084;SDS011;5596;46.826;8.650;2023-01-15T09:24:17;2.07;;;1.27;;
11084;SDS011;5596;46.826;8.650;2023-01-15T09:26:44;1.00;;;0.83;;
11084;SDS011;5596;46.826;8.650;2023-01-15T09:29:11;1.03;;;0.73;;
11084;SDS011;5596;46.826;8.650;2023-01-15T09:31:38;1.13;;;0.90;;
11084;SDS011;5596;46.826;8.650;2023-01-15T09:34:05;2.60;;;0.87;;
11084;SDS011;5596;46.826;8.650;2023-01-15T09:36:34;1.37;;;0.77;;
11084;SDS011;5596;46.826;8.650;2023-01-15T09:39:01;1.27;;;0.80;;
11084;SDS011;5596;46.826;8.650;2023-01-15T09:41:36;1.63;;;1.10;;
11084;SDS011;5596;46.826;8.650;2023-01-15T09:44:36;2.10;;;0.90;;
11084;SDS011;5596;46.826;8.650;2023-01-15T09:47:12;0.77;;;0.77;;
11084;SDS011;5596;46.826;8.650;2023-01-15T09:52:46;0.90;;;0.80;;
11084;SDS011;5596;46.826;8.650;2023-01-15T09:55:26;0.83;;;0.70;;
11084;SDS011;5596;46.826;8.650;2023-01-15T09:57:55;1.67;;;0.90;;
11084;SDS011;5596;46.826;8.650;2023-01-15T10:00:25;1.60;;;0.77;;
11084;SDS011;5596;46.826;8.650;2023-01-15T10:03:04;0.73;;;0.73;;
11084;SDS011;5596;46.826;8.650;2023-01-15T10:05:40;0.70;;;0.70;;
11084;SDS011;5596;46.826;8.650;2023-01-15T10:08:13;2.13;;;1.00;;
11084;SDS011;5596;46.826;8.650;2023-01-15T10:10:45;1.60;;;1.20;;
11084;SDS011;5596;46.826;8.650;2023-01-15T10:13:18;1.00;;;1.00;;
11084;SDS011;5596;46.826;8.650;2023-01-15T10:15:53;1.37;;;1.00;;
11084;SDS011;5596;46.826;8.650;2023-01-15T10:18:21;1.67;;;1.10;;
11084;SDS011;5596;46.826;8.650;2023-01-15T10:20:59;0.93;;;0.90;;
11084;SDS011;5596;46.826;8.650;2023-01-15T10:23:38;0.93;;;0.80;;
11084;SDS011;5596;46.826;8.650;2023-01-15T10:26:13;0.83;;;0.80;;
11084;SDS011;5596;46.826;8.650;2023-01-15T10:28:50;1.77;;;1.00;;
11084;SDS011;5596;46.826;8.650;2023-01-15T10:31:24;1.07;;;0.90;;
11084;SDS011;5596;46.826;8.650;2023-01-15T10:34:08;1.80;;;1.00;;
11084;SDS011;5596;46.826;8.650;2023-01-15T10:36:52;1.97;;;1.10;;
11084;SDS011;5596;46.826;8.650;2023-01-15T10:39:26;1.17;;;0.77;;
11084;SDS011;5596;46.826;8.650;2023-01-15T10:42:02;0.70;;;0.70;;
11084;SDS011;5596;46.826;8.650;2023-01-15T10:44:40;0.60;;;0.60;;
11084;SDS011;5596;46.826;8.650;2023-01-15T10:47:14;0.80;;;0.80;;
11084;SDS011;5596;46.826;8.650;2023-01-15T10:49:45;1.00;;;0.80;;
11084;SDS011;5596;46.826;8.650;2023-01-15T10:52:17;1.90;;;1.20;;
11084;SDS011;5596;46.826;8.650;2023-01-15T10:54:52;1.60;;;1.00;;
11084;SDS011;5596;46.826;8.650;2023-01-15T10:57:25;1.20;;;0.90;;
11084;SDS011;5596;46.826;8.650;2023-01-15T11:00:02;1.07;;;0.97;;
11084;SDS011;5596;46.826;8.650;2023-01-15T11:02:33;1.53;;;1.10;;
11084;SDS011;5596;46.826;8.650;2023-01-15T11:05:10;1.70;;;1.20;;
11084;SDS011;5596;46.826;8.650;2023-01-15T11:07:40;2.87;;;1.00;;
11084;SDS011;5596;46.826;8.650;2023-01-15T11:10:12;0.73;;;0.73;;
11084;SDS011;5596;46.826;8.650;2023-01-15T11:12:43;1.20;;;1.10;;
11084;SDS011;5596;46.826;8.650;2023-01-15T11:15:33;1.00;;;0.80;;
11084;SDS011;5596;46.826;8.650;2023-01-15T11:18:20;2.07;;;1.30;;
11084;SDS011;5596;46.826;8.650;2023-01-15T11:21:10;1.30;;;0.93;;
11084;SDS011;5596;46.826;8.650;2023-01-15T11:23:38;1.53;;;1.00;;
11084;SDS011;5596;46.826;8.650;2023-01-15T11:26:08;0.90;;;0.80;;
11084;SDS011;5596;46.826;8.650;2023-01-15T11:28:42;0.70;;;0.70;;
11084;SDS011;5596;46.826;8.650;2023-01-15T11:31:10;1.23;;;0.60;;
11084;SDS011;5596;46.826;8.650;2023-01-15T11:33:39;0.60;;;0.60;;
11084;SDS011;5596;46.826;8.650;2023-01-15T11:36:19;0.60;;;0.60;;
11084;SDS011;5596;46.826;8.650;2023-01-15T11:38:48;0.87;;;0.80;;
11084;SDS011;5596;46.826;8.650;2023-01-15T11:41:20;0.60;;;0.60;;
11084;SDS011;5596;46.826;8.650;2023-01-15T11:43:53;0.60;;;0.60;;
11084;SDS011;5596;46.826;8.650;2023-01-15T11:46:38;1.50;;;0.90;;
11084;SDS011;5596;46.826;8.650;2023-01-15T11:49:23;0.90;;;0.60;;
11084;SDS011;5596;46.826;8.650;2023-01-15T11:52:09;0.70;;;0.70;;
11084;SDS011;5596;46.826;8.650;2023-01-15T11:54:40;0.60;;;0.60;;
11084;SDS011;5596;46.826;8.650;2023-01-15T11:57:11;1.00;;;0.50;;
11084;SDS011;5596;46.826;8.650;2023-01-15T11:59:51;1.33;;;0.57;;
11084;SDS011;5596;46.826;8.650;2023-01-15T12:02:21;0.70;;;0.70;;
11084;SDS011;5596;46.826;8.650;2023-01-15T12:04:56;0.90;;;0.70;;
11084;SDS011;5596;46.826;8.650;2023-01-15T12:07:26;0.50;;;0.50;;
11084;SDS011;5596;46.826;8.650;2023-01-15T12:10:01;1.40;;;0.97;;
11084;SDS011;5596;46.826;8.650;2023-01-15T12:12:43;0.50;;;0.50;;
11084;SDS011;5596;46.826;8.650;2023-01-15T12:15:32;0.90;;;0.90;;
11084;SDS011;5596;46.826;8.650;2023-01-15T12:18:24;0.70;;;0.57;;
11084;SDS011;5596;46.826;8.650;2023-01-15T12:21:16;1.33;;;0.57;;
11084;SDS011;5596;46.826;8.650;2023-01-15T12:27:06;0.50;;;0.50;;
11084;SDS011;5596;46.826;8.650;2023-01-15T12:29:48;0.57;;;0.57;;
11084;SDS011;5596;46.826;8.650;2023-01-15T12:32:19;0.60;;;0.60;;
11084;SDS011;5596;46.826;8.650;2023-01-15T12:34:51;0.50;;;0.50;;
11084;SDS011;5596;46.826;8.650;2023-01-15T12:37:24;0.60;;;0.60;;
11084;SDS011;5596;46.826;8.650;2023-01-15T12:39:54;0.50;;;0.50;;
11084;SDS011;5596;46.826;8.650;2023-01-15T12:42:24;0.40;;;0.40;;
11084;SDS011;5596;46.826;8.650;2023-01-15T12:45:15;0.53;;;0.53;;
11084;SDS011;5596;46.826;8.650;2023-01-15T12:47:45;0.50;;;0.50;;
11084;SDS011;5596;46.826;8.650;2023-01-15T12:50:21;0.60;;;0.60;;
11084;SDS011;5596;46.826;8.650;2023-01-15T12:52:56;0.50;;;0.50;;
11084;SDS011;5596;46.826;8.650;2023-01-15T12:55:29;0.50;;;0.50;;
11084;SDS011;5596;46.826;8.650;2023-01-15T12:58:01;0.40;;;0.40;;
11084;SDS011;5596;46.826;8.650;2023-01-15T13:00:36;0.40;;;0.40;;
11084;SDS011;5596;46.826;8.650;2023-01-15T13:03:12;0.53;;;0.53;;
11084;SDS011;5596;46.826;8.650;2023-01-15T13:05:45;0.40;;;0.40;;
11084;SDS011;5596;46.826;8.650;2023-01-15T13:08:17;0.60;;;0.60;;
11084;SDS011;5596;46.826;8.650;2023-01-15T13:10:49;0.57;;;0.57;;
11084;SDS011;5596;46.826;8.650;2023-01-15T13:13:18;0.63;;;0.50;;
11084;SDS011;5596;46.826;8.650;2023-01-15T13:18:36;0.80;;;0.80;;
11084;SDS011;5596;46.826;8.650;2023-01-15T13:21:13;0.60;;;0.60;;
11084;SDS011;5596;46.826;8.650;2023-01-15T13:23:50;0.57;;;0.57;;
11084;SDS011;5596;46.826;8.650;2023-01-15T13:26:49;0.63;;;0.63;;
11084;SDS011;5596;46.826;8.650;2023-01-15T13:29:24;0.50;;;0.50;;
11084;SDS011;5596;46.826;8.650;2023-01-15T13:32:06;0.63;;;0.50;;
11084;SDS011;5596;46.826;8.650;2023-01-15T13:34:42;0.50;;;0.50;;
11084;SDS011;5596;46.826;8.650;2023-01-15T13:37:15;0.50;;;0.50;;
11084;SDS011;5596;46.826;8.650;2023-01-15T13:39:47;0.77;;;0.50;;
11084;SDS011;5596;46.826;8.650;2023-01-15T13:42:17;0.50;;;0.50;;
11084;SDS011;5596;46.826;8.650;2023-01-15T13:45:03;1.10;;;0.87;;
11084;SDS011;5596;46.826;8.650;2023-01-15T13:47:49;0.50;;;0.50;;
11084;SDS011;5596;46.826;8.650;2023-01-15T13:50:22;0.40;;;0.40;;
11084;SDS011;5596;46.826;8.650;2023-01-15T13:52:59;0.40;;;0.40;;
11084;SDS011;5596;46.826;8.650;2023-01-15T13:55:29;0.60;;;0.60;;
11084;SDS011;5596;46.826;8.650;2023-01-15T13:57:59;0.50;;;0.50;;
11084;SDS011;5596;46.826;8.650;2023-01-15T14:00:27;0.53;;;0.40;;
11084;SDS011;5596;46.826;8.650;2023-01-15T14:02:59;0.60;;;0.60;;
11084;SDS011;5596;46.826;8.650;2023-01-15T14:05:31;1.07;;;0.80;;
11084;SDS011;5596;46.826;8.650;2023-01-15T14:07:59;1.67;;;0.60;;
11084;SDS011;5596;46.826;8.650;2023-01-15T14:10:32;0.93;;;0.80;;
11084;SDS011;5596;46.826;8.650;2023-01-15T14:13:22;2.17;;;1.23;;
11084;SDS011;5596;46.826;8.650;2023-01-15T14:16:10;0.60;;;0.60;;
11084;SDS011;5596;46.826;8.650;2023-01-15T14:18:58;0.50;;;0.50;;
11084;SDS011;5596;46.826;8.650;2023-01-15T14:22:06;0.40;;;0.40;;
11084;SDS011;5596;46.826;8.650;2023-01-15T14:24:48;0.50;;;0.50;;
11084;SDS011;5596;46.826;8.650;2023-01-15T14:27:47;0.40;;;0.40;;
11084;SDS011;5596;46.826;8.650;2023-01-15T14:30:29;0.40;;;0.40;;
11084;SDS011;5596;46.826;8.650;2023-01-15T14:33:16;0.40;;;0.40;;
11084;SDS011;5596;46.826;8.650;2023-01-15T14:35:54;0.50;;;0.50;;
11084;SDS011;5596;46.826;8.650;2023-01-15T14:38:22;0.60;;;0.60;;
11084;SDS011;5596;46.826;8.650;2023-01-15T14:40:53;0.70;;;0.70;;
11084;SDS011;5596;46.826;8.650;2023-01-15T14:43:25;0.40;;;0.40;;
11084;SDS011;5596;46.826;8.650;2023-01-15T14:45:54;0.40;;;0.40;;
11084;SDS011;5596;46.826;8.650;2023-01-15T14:48:33;0.40;;;0.40;;
11084;SDS011;5596;46.826;8.650;2023-01-15T14:51:09;0.40;;;0.40;;
11084;SDS011;5596;46.826;8.650;2023-01-15T14:53:40;0.40;;;0.40;;
11084;SDS011;5596;46.826;8.650;2023-01-15T14:56:12;0.40;;;0.40;;
11084;SDS011;5596;46.826;8.650;2023-01-15T14:58:49;0.40;;;0.40;;
11084;SDS011;5596;46.826;8.650;2023-01-15T15:01:23;0.43;;;0.43;;
11084;SDS011;5596;46.826;8.650;2023-01-15T15:03:59;0.50;;;0.50;;
11084;SDS011;5596;46.826;8.650;2023-01-15T15:06:35;0.50;;;0.50;;
11084;SDS011;5596;46.826;8.650;2023-01-15T15:09:12;0.43;;;0.43;;
11084;SDS011;5596;46.826;8.650;2023-01-15T15:11:45;0.40;;;0.40;;
11084;SDS011;5596;46.826;8.650;2023-01-15T15:14:31;0.40;;;0.40;;
11084;SDS011;5596;46.826;8.650;2023-01-15T15:17:04;0.60;;;0.60;;
11084;SDS011;5596;46.826;8.650;2023-01-15T15:19:49;0.50;;;0.50;;
11084;SDS011;5596;46.826;8.650;2023-01-15T15:22:25;0.83;;;0.70;;
11084;SDS011;5596;46.826;8.650;2023-01-15T15:24:57;1.87;;;1.47;;
11084;SDS011;5596;46.826;8.650;2023-01-15T15:27:33;1.53;;;1.20;;
11084;SDS011;5596;46.826;8.650;2023-01-15T15:30:04;0.87;;;0.80;;
11084;SDS011;5596;46.826;8.650;2023-01-15T15:32:33;2.43;;;1.20;;
11084;SDS011;5596;46.826;8.650;2023-01-15T15:35:10;2.53;;;1.37;;
11084;SDS011;5596;46.826;8.650;2023-01-15T15:37:51;2.07;;;1.43;;
11084;SDS011;5596;46.826;8.650;2023-01-15T15:40:19;0.90;;;0.80;;